Time;durP1;ratioP1;P1;durP2;ratioP2;P2;SDS_P1;SDS_P2;PMS_P1;PMS_P2;Temp;Humidity;BMP_temperature;BMP_pressure;BME280_temperature;BME280_humidity;BME280_pressure;Samples;Min_cycle;Max_cycle;Signal;HPM_P1;HPM_P2
2022/03/04 00:02:22;;;;;;;6.40;4.00;;;1.30;99.90;;;;;;5026792;28;20479;-54
2022/03/04 00:04:48;;;;;;;7.57;4.80;;;1.20;99.90;;;;;;5031295;28;20556;-53
2022/03/04 00:07:15;;;;;;;12.87;4.60;;;1.30;99.90;;;;;;5020062;28;20500;-52
2022/03/04 00:09:43;;;;;;;8.43;5.20;;;1.20;80.80;;;;;;5022299;28;20517;-53
2022/03/04 00:12:10;;;;;;;7.10;4.67;;;1.20;94.30;;;;;;5024772;28;20524;-53
2022/03/04 00:14:37;;;;;;;6.60;4.00;;;1.20;76.80;;;;;;5030693;28;20451;-54
2022/03/04 00:17:04;;;;;;;6.03;4.03;;;1.20;87.00;;;;;;5012184;28;20801;-54
2022/03/04 00:19:30;;;;;;;5.13;3.90;;;1.20;81.70;;;;;;5028560;28;21072;-54
2022/03/04 00:21:57;;;;;;;7.73;4.77;;;1.20;99.90;;;;;;5030991;28;20880;-53
2022/03/04 00:24:24;;;;;;;8.30;3.90;;;1.20;99.90;;;;;;5027105;28;20462;-54
2022/03/04 00:26:52;;;;;;;13.20;4.50;;;1.20;86.70;;;;;;5019320;28;20561;-53
2022/03/04 00:29:19;;;;;;;7.13;4.20;;;1.20;99.90;;;;;;5022861;28;21045;-52
2022/03/04 00:31:46;;;;;;;10.60;4.03;;;1.20;99.90;;;;;;5016642;28;20451;-53
2022/03/04 00:34:13;;;;;;;3.83;3.40;;;1.30;99.90;;;;;;5028274;28;20814;-53
2022/03/04 00:36:41;;;;;;;7.27;3.97;;;1.30;96.50;;;;;;5026339;28;20447;-52
2022/03/04 00:39:11;;;;;;;4.47;3.57;;;1.20;22.10;;;;;;5028100;28;20467;-54
2022/03/04 00:41:38;;;;;;;3.33;3.07;;;1.20;99.90;;;;;;5020426;28;21043;-53
2022/03/04 00:44:07;;;;;;;5.03;3.20;;;1.20;99.90;;;;;;5025403;28;20474;-53
2022/03/04 00:46:34;;;;;;;7.30;4.73;;;1.20;99.90;;;;;;5015375;28;20446;-53
2022/03/04 00:49:00;;;;;;;3.30;3.00;;;1.10;99.90;;;;;;5022993;28;21185;-53
2022/03/04 00:51:27;;;;;;;6.13;3.30;;;1.20;99.90;;;;;;5024664;28;20481;-53
2022/03/04 00:53:54;;;;;;;3.10;2.77;;;1.20;99.90;;;;;;5030228;28;20463;-53
2022/03/04 00:56:21;;;;;;;9.37;3.23;;;1.20;99.90;;;;;;5023673;28;20498;-52
2022/03/04 00:58:47;;;;;;;4.50;3.20;;;1.20;99.90;;;;;;5024997;28;20463;-53
2022/03/04 01:01:16;;;;;;;5.27;3.10;;;1.30;99.90;;;;;;5025169;28;20486;-53
2022/03/04 01:03:42;;;;;;;3.70;2.93;;;1.20;99.90;;;;;;5022958;28;20465;-53
2022/03/04 01:06:09;;;;;;;10.87;3.60;;;1.20;99.90;;;;;;5030401;28;20507;-53
2022/03/04 01:08:36;;;;;;;4.00;2.90;;;1.20;99.90;;;;;;5027900;28;20493;-53
2022/03/04 01:11:02;;;;;;;4.27;3.17;;;1.20;99.90;;;;;;5020990;28;20472;-53
2022/03/04 01:13:29;;;;;;;3.83;2.80;;;1.30;99.90;;;;;;5023133;28;20960;-52
2022/03/04 01:15:56;;;;;;;3.63;2.50;;;1.30;99.90;;;;;;5029553;28;20532;-52
2022/03/04 01:18:24;;;;;;;3.33;2.23;;;1.20;99.90;;;;;;5021140;28;20463;-53
2022/03/04 01:20:51;;;;;;;3.70;2.43;;;1.20;91.40;;;;;;5017061;28;20857;-53
2022/03/04 01:23:17;;;;;;;5.10;3.13;;;1.20;86.50;;;;;;5030560;28;20474;-53
2022/03/04 01:25:44;;;;;;;7.70;2.93;;;1.20;99.90;;;;;;5030177;28;20494;-53
2022/03/04 01:28:11;;;;;;;2.63;2.40;;;1.20;99.90;;;;;;5032799;28;20450;-52
2022/03/04 01:30:37;;;;;;;3.60;2.53;;;1.20;99.90;;;;;;5029357;28;20482;-53
2022/03/04 01:33:04;;;;;;;2.50;2.30;;;1.20;99.90;;;;;;5031175;28;20459;-52
2022/03/04 01:35:32;;;;;;;3.60;2.57;;;1.20;99.90;;;;;;5033995;28;21006;-53
2022/03/04 01:37:58;;;;;;;2.77;2.57;;;1.30;77.50;;;;;;5031240;28;20505;-54
2022/03/04 01:40:25;;;;;;;2.80;2.60;;;1.20;86.10;;;;;;5029902;28;20559;-56
2022/03/04 01:42:52;;;;;;;5.40;3.30;;;1.20;99.90;;;;;;5028215;28;20515;-53
2022/03/04 01:45:19;;;;;;;2.50;2.30;;;1.30;99.90;;;;;;5032637;28;20451;-53
2022/03/04 01:47:46;;;;;;;3.07;2.67;;;1.30;99.90;;;;;;5032536;28;20883;-54
2022/03/04 01:50:12;;;;;;;3.53;3.13;;;1.30;94.20;;;;;;5028634;28;20482;-54
2022/03/04 01:52:40;;;;;;;2.50;2.30;;;1.30;86.80;;;;;;5031604;28;20435;-53
2022/03/04 01:55:08;;;;;;;3.80;2.00;;;1.40;21.70;;;;;;5033220;28;20537;-52
2022/03/04 01:57:36;;;;;;;3.63;2.23;;;1.40;25.60;;;;;;5031349;28;20455;-53
2022/03/04 02:00:05;;;;;;;2.33;2.13;;;1.40;28.20;;;;;;5032348;28;20518;-53
2022/03/04 02:02:31;;;;;;;5.10;2.30;;;1.40;31.50;;;;;;5030244;28;20490;-52
2022/03/04 02:04:58;;;;;;;2.73;1.87;;;1.40;28.80;;;;;;5033209;28;20830;-53
2022/03/04 02:07:24;;;;;;;2.83;2.40;;;1.40;31.70;;;;;;5032054;28;20880;-52
2022/03/04 02:09:52;;;;;;;4.73;2.50;;;1.40;32.90;;;;;;5023504;28;20494;-51
2022/03/04 02:12:19;;;;;;;2.63;2.30;;;1.40;40.80;;;;;;5018433;28;20502;-53
2022/03/04 02:14:45;;;;;;;2.40;2.00;;;1.30;42.90;;;;;;5028691;28;20468;-52
2022/03/04 02:17:12;;;;;;;4.37;2.10;;;1.30;27.20;;;;;;5034011;28;20455;-53
2022/03/04 02:19:39;;;;;;;4.87;2.70;;;1.40;31.90;;;;;;5031131;28;20523;-52
2022/03/04 02:22:08;;;;;;;3.23;2.00;;;1.40;31.90;;;;;;5033688;28;20510;-52
2022/03/04 02:24:34;;;;;;;2.40;2.07;;;1.50;35.20;;;;;;5029247;28;20473;-53
2022/03/04 02:27:04;;;;;;;5.07;2.23;;;1.50;39.50;;;;;;5033100;28;20447;-53
2022/03/04 02:29:34;;;;;;;5.27;3.13;;;1.40;43.90;;;;;;5028429;28;20483;-53
2022/03/04 02:32:01;;;;;;;6.17;2.40;;;1.40;38.00;;;;;;5030852;28;20444;-53
2022/03/04 02:34:28;;;;;;;4.00;2.10;;;1.50;34.60;;;;;;5021182;28;21025;-53
2022/03/04 02:36:55;;;;;;;4.53;2.50;;;1.50;40.80;;;;;;5024820;28;20466;-52
2022/03/04 02:39:23;;;;;;;3.23;2.07;;;1.50;42.50;;;;;;5031719;28;20829;-53
2022/03/04 02:41:50;;;;;;;6.63;2.60;;;1.50;46.60;;;;;;5030041;28;20537;-52
2022/03/04 02:44:16;;;;;;;4.53;2.37;;;1.50;40.40;;;;;;5024086;28;20995;-52
2022/03/04 02:46:43;;;;;;;5.93;2.47;;;1.50;39.80;;;;;;5024602;28;20478;-53
2022/03/04 02:49:11;;;;;;;4.73;3.30;;;1.50;38.70;;;;;;5027154;28;20467;-54
2022/03/04 02:51:38;;;;;;;4.20;2.37;;;1.50;43.00;;;;;;5031148;28;20843;-53
2022/03/04 02:54:05;;;;;;;3.83;2.13;;;1.50;42.00;;;;;;5029480;28;20459;-54
2022/03/04 02:56:33;;;;;;;5.00;2.40;;;1.50;44.90;;;;;;5031061;28;20467;-53
2022/03/04 02:59:00;;;;;;;2.67;2.30;;;1.50;43.20;;;;;;5027275;28;20458;-53
2022/03/04 03:01:27;;;;;;;5.13;2.53;;;1.60;44.20;;;;;;5029593;28;21033;-53
2022/03/04 03:03:54;;;;;;;5.50;2.13;;;1.50;52.30;;;;;;5027202;28;20577;-54
2022/03/04 03:06:20;;;;;;;3.27;2.10;;;1.50;43.20;;;;;;5028485;28;20451;-53
2022/03/04 03:08:47;;;;;;;2.97;2.57;;;1.50;40.20;;;;;;5027003;28;20456;-53
2022/03/04 03:11:14;;;;;;;2.93;2.63;;;1.50;45.40;;;;;;5026223;28;20479;-54
2022/03/04 03:13:42;;;;;;;4.33;2.77;;;1.50;43.90;;;;;;5031629;28;20460;-53
2022/03/04 03:16:09;;;;;;;3.57;2.00;;;1.50;45.20;;;;;;5031103;28;20579;-53
2022/03/04 03:18:36;;;;;;;4.87;2.17;;;1.40;43.80;;;;;;5030733;28;20463;-53
2022/03/04 03:21:03;;;;;;;3.37;2.10;;;1.40;35.40;;;;;;5029232;28;20474;-54
2022/03/04 03:23:29;;;;;;;7.77;2.47;;;1.40;34.30;;;;;;5030625;28;20494;-53
2022/03/04 03:25:56;;;;;;;4.27;2.37;;;1.50;35.50;;;;;;5028301;28;20565;-53
2022/03/04 03:28:22;;;;;;;5.07;2.50;;;1.50;42.40;;;;;;5029982;28;20459;-53
2022/03/04 03:30:52;;;;;;;3.63;2.30;;;1.50;45.40;;;;;;5029309;28;21061;-53
2022/03/04 03:33:18;;;;;;;2.80;2.20;;;1.40;48.30;;;;;;5031238;28;20547;-53
2022/03/04 03:35:45;;;;;;;6.57;2.93;;;1.40;45.60;;;;;;5031389;28;20464;-53
2022/03/04 03:38:11;;;;;;;2.13;2.03;;;1.30;45.60;;;;;;5031394;28;20884;-52
2022/03/04 03:40:38;;;;;;;2.10;2.00;;;1.20;50.20;;;;;;5024860;28;20482;-52
2022/03/04 03:43:05;;;;;;;3.60;2.17;;;1.00;45.30;;;;;;5031522;28;20478;-53
2022/03/04 03:45:31;;;;;;;3.03;2.10;;;1.00;40.60;;;;;;5029505;28;20889;-53
2022/03/04 03:47:59;;;;;;;4.27;2.30;;;0.80;39.20;;;;;;5027069;28;20462;-53
2022/03/04 03:50:26;;;;;;;4.30;2.40;;;0.60;37.50;;;;;;5031671;28;20490;-53
2022/03/04 03:52:53;;;;;;;5.93;2.50;;;0.50;33.00;;;;;;5029402;28;20884;-53
2022/03/04 03:55:19;;;;;;;6.27;2.13;;;0.30;21.40;;;;;;5032069;28;20534;-53
2022/03/04 03:57:46;;;;;;;6.00;2.60;;;0.30;99.90;;;;;;5021260;28;20517;-53
2022/03/04 04:00:13;;;;;;;3.47;2.60;;;0.20;99.90;;;;;;5027353;28;20478;-53
2022/03/04 04:02:40;;;;;;;3.70;2.27;;;0.10;99.90;;;;;;5031401;28;20860;-54
2022/03/04 04:05:09;;;;;;;3.30;2.80;;;0.10;99.90;;;;;;5032805;28;20517;-53
2022/03/04 04:07:36;;;;;;;2.63;2.10;;;0.00;99.90;;;;;;5026262;28;20484;-58
2022/03/04 04:10:03;;;;;;;2.40;2.20;;;-0.10;99.90;;;;;;5037793;28;20486;-53
2022/03/04 04:12:29;;;;;;;4.00;2.90;;;-0.10;99.90;;;;;;5038994;28;20462;-53
2022/03/04 04:14:56;;;;;;;2.40;2.20;;;-0.20;99.90;;;;;;5041307;28;20458;-53
2022/03/04 04:17:23;;;;;;;2.73;2.50;;;-0.20;99.90;;;;;;5029801;28;20467;-53
2022/03/04 04:19:49;;;;;;;3.93;2.13;;;-0.20;99.90;;;;;;5028921;28;20864;-55
2022/03/04 04:22:18;;;;;;;2.70;2.33;;;-0.30;99.90;;;;;;5028385;28;20889;-53
2022/03/04 04:24:44;;;;;;;4.10;2.23;;;-0.30;99.90;;;;;;5031917;28;20460;-52
2022/03/04 04:27:11;;;;;;;5.47;2.93;;;-0.30;99.90;;;;;;5030232;28;20944;-53
2022/03/04 04:29:37;;;;;;;2.90;1.83;;;-0.30;99.90;;;;;;5026707;28;20478;-53
2022/03/04 04:32:05;;;;;;;4.43;2.87;;;-0.40;99.90;;;;;;5025340;28;20508;-53
2022/03/04 04:34:31;;;;;;;3.03;2.70;;;-0.40;99.90;;;;;;5030759;28;20517;-53
2022/03/04 04:36:58;;;;;;;2.33;2.10;;;-0.50;99.90;;;;;;5022943;28;20451;-52
2022/03/04 04:39:26;;;;;;;6.67;3.43;;;-0.60;99.90;;;;;;5026834;28;20479;-53
2022/03/04 04:41:52;;;;;;;3.63;2.40;;;-0.60;99.90;;;;;;5017412;28;20518;-52
2022/03/04 04:44:19;;;;;;;6.40;4.43;;;-0.60;99.90;;;;;;5029055;28;20478;-53
2022/03/04 04:46:46;;;;;;;10.80;5.23;;;-0.60;99.90;;;;;;5031342;28;20442;-51
2022/03/04 04:49:12;;;;;;;4.73;4.33;;;-0.60;99.90;;;;;;5029628;28;20470;-52
2022/03/04 04:51:39;;;;;;;5.67;3.90;;;-0.60;99.90;;;;;;5029886;28;20462;-53
2022/03/04 04:54:05;;;;;;;4.20;3.80;;;-0.60;99.90;;;;;;5029397;28;20459;-53
2022/03/04 04:56:33;;;;;;;4.90;3.53;;;-0.50;99.90;;;;;;5023815;28;20459;-53
2022/03/04 04:59:00;;;;;;;3.00;2.77;;;-0.40;99.90;;;;;;5029872;28;20490;-54
2022/03/04 05:01:26;;;;;;;5.73;3.50;;;-0.30;99.90;;;;;;5027723;28;20494;-54
2022/03/04 05:03:53;;;;;;;4.00;3.37;;;-0.30;99.90;;;;;;5035260;28;20479;-53
2022/03/04 05:06:19;;;;;;;3.67;3.10;;;-0.30;99.90;;;;;;5034147;28;20501;-53
2022/03/04 05:08:46;;;;;;;5.57;3.20;;;-0.20;99.90;;;;;;5023750;28;20447;-53
2022/03/04 05:11:13;;;;;;;3.57;2.87;;;-0.20;99.90;;;;;;5032320;28;20482;-53
2022/03/04 05:13:40;;;;;;;2.93;2.63;;;-0.20;99.90;;;;;;5034123;28;20500;-53
2022/03/04 05:16:07;;;;;;;3.03;2.13;;;-0.10;99.90;;;;;;5033975;28;20490;-53
2022/03/04 05:18:34;;;;;;;3.03;2.80;;;0.00;99.90;;;;;;5026857;28;20497;-52
2022/03/04 05:21:02;;;;;;;3.90;2.60;;;0.00;20.10;;;;;;5030141;28;21242;-54
2022/03/04 05:26:12;;;;;;;2.80;2.60;;;-0.10;99.90;;;;;;5022103;28;20541;-53
2022/03/04 05:28:41;;;;;;;3.30;3.00;;;0.00;99.90;;;;;;5031429;28;20474;-52
2022/03/04 05:31:08;;;;;;;3.50;2.77;;;-0.10;99.90;;;;;;5029543;28;20513;-53
2022/03/04 05:33:35;;;;;;;6.20;3.30;;;-0.20;99.90;;;;;;5030643;28;20496;-53
2022/03/04 05:36:01;;;;;;;4.50;3.17;;;-0.20;99.90;;;;;;5033524;28;20528;-53
2022/03/04 05:38:28;;;;;;;4.83;3.10;;;-0.30;99.90;;;;;;5030081;28;20835;-52
2022/03/04 05:40:55;;;;;;;5.43;3.00;;;-0.30;99.90;;;;;;5033790;28;20564;-52
2022/03/04 05:43:21;;;;;;;4.03;2.67;;;-0.30;99.90;;;;;;5032447;28;20489;-53
2022/03/04 05:45:49;;;;;;;3.13;2.83;;;-0.30;99.90;;;;;;5032972;28;20513;-53
2022/03/04 05:48:16;;;;;;;3.10;2.90;;;-0.40;99.90;;;;;;5031621;28;20462;-52
2022/03/04 05:50:43;;;;;;;3.63;2.80;;;-0.40;99.90;;;;;;5028089;28;20984;-52
2022/03/04 05:53:10;;;;;;;3.63;2.97;;;-0.50;99.90;;;;;;5034191;28;20513;-52
2022/03/04 05:55:36;;;;;;;3.23;2.87;;;-0.50;99.90;;;;;;5025236;28;20529;-54
2022/03/04 05:58:03;;;;;;;4.23;3.00;;;-0.50;99.90;;;;;;5032198;28;20459;-52
2022/03/04 06:00:30;;;;;;;4.90;2.97;;;-0.50;99.90;;;;;;5020463;28;20410;-52
2022/03/04 06:02:58;;;;;;;4.17;3.37;;;-0.50;99.90;;;;;;5018952;28;20212;-52
2022/03/04 06:05:25;;;;;;;3.73;2.97;;;-0.40;99.90;;;;;;5015289;28;20470;-51
2022/03/04 06:07:51;;;;;;;5.33;2.90;;;-0.40;99.90;;;;;;5022405;28;20485;-51
2022/03/04 06:10:18;;;;;;;4.30;3.83;;;-0.30;99.90;;;;;;5027284;28;20474;-51
2022/03/04 06:12:44;;;;;;;23.47;3.70;;;-0.30;99.90;;;;;;5026430;28;20487;-51
2022/03/04 06:15:11;;;;;;;4.73;3.23;;;-0.20;99.90;;;;;;5023324;28;21043;-51
2022/03/04 06:17:39;;;;;;;6.20;3.90;;;-0.10;99.90;;;;;;5024526;28;20463;-51
2022/03/04 06:20:08;;;;;;;9.50;4.70;;;0.00;99.90;;;;;;5026936;28;20999;-51
2022/03/04 06:22:35;;;;;;;6.63;4.30;;;0.10;99.90;;;;;;5031428;28;20454;-51
2022/03/04 06:25:01;;;;;;;3.43;3.07;;;0.10;99.90;;;;;;5025052;28;20478;-52
2022/03/04 06:27:28;;;;;;;6.97;3.90;;;0.30;99.90;;;;;;5022652;28;20447;-51
2022/03/04 06:29:55;;;;;;;3.53;3.23;;;0.30;99.90;;;;;;5025351;28;20470;-51
2022/03/04 06:32:21;;;;;;;4.20;3.13;;;0.40;99.90;;;;;;5032407;28;20481;-51
2022/03/04 06:34:48;;;;;;;7.30;3.33;;;0.40;99.90;;;;;;5030332;28;20439;-51
2022/03/04 06:37:16;;;;;;;4.80;3.20;;;0.50;99.90;;;;;;5029624;28;20921;-51
2022/03/04 06:39:43;;;;;;;6.27;3.10;;;0.60;99.90;;;;;;5026943;28;20602;-52
2022/03/04 06:42:10;;;;;;;5.70;3.23;;;0.70;99.90;;;;;;5028874;28;21034;-51
2022/03/04 06:44:36;;;;;;;5.17;3.70;;;0.70;99.90;;;;;;5024785;28;20478;-51
2022/03/04 06:47:04;;;;;;;3.50;2.77;;;0.70;99.90;;;;;;5027573;28;20463;-52
2022/03/04 06:49:30;;;;;;;5.73;2.87;;;0.70;99.90;;;;;;5022063;28;20510;-52
2022/03/04 06:51:57;;;;;;;4.57;2.80;;;0.70;99.90;;;;;;5029773;28;21071;-51
2022/03/04 06:54:25;;;;;;;6.20;3.00;;;0.80;99.90;;;;;;5026104;28;21995;-52
2022/03/04 06:56:51;;;;;;;3.63;2.47;;;0.90;99.90;;;;;;5031004;28;20447;-51
2022/03/04 06:59:18;;;;;;;4.70;2.60;;;0.90;99.90;;;;;;5023418;28;20550;-51
2022/03/04 07:01:45;;;;;;;4.67;2.83;;;0.90;99.90;;;;;;5027104;28;20489;-51
2022/03/04 07:04:11;;;;;;;3.47;2.47;;;1.00;99.90;;;;;;5022254;28;20482;-51
2022/03/04 07:06:38;;;;;;;4.37;3.03;;;1.00;99.90;;;;;;5025356;28;20513;-53
2022/03/04 07:09:04;;;;;;;3.87;2.67;;;1.00;99.90;;;;;;5029162;28;20505;-51
2022/03/04 07:11:32;;;;;;;9.93;2.97;;;1.10;99.90;;;;;;5030521;28;20467;-51
2022/03/04 07:13:59;;;;;;;4.23;2.67;;;1.10;99.90;;;;;;5029241;28;20458;-51
2022/03/04 07:16:26;;;;;;;5.20;2.83;;;1.10;99.90;;;;;;5022466;28;20960;-51
2022/03/04 07:18:52;;;;;;;5.60;3.23;;;1.20;99.90;;;;;;5022084;28;20467;-50
2022/03/04 07:21:19;;;;;;;4.67;3.33;;;1.20;99.90;;;;;;5028679;28;20540;-51
2022/03/04 07:23:46;;;;;;;5.70;3.20;;;1.10;99.90;;;;;;5028564;28;20482;-51
2022/03/04 07:26:12;;;;;;;4.67;2.90;;;1.10;99.90;;;;;;5021948;28;20463;-51
2022/03/04 07:28:40;;;;;;;3.47;3.20;;;1.10;99.90;;;;;;5027900;28;20458;-52
2022/03/04 07:31:07;;;;;;;4.80;3.03;;;1.20;99.90;;;;;;5022183;28;20479;-51
2022/03/04 07:33:36;;;;;;;5.90;2.77;;;1.30;99.90;;;;;;5028137;28;20853;-51
2022/03/04 07:36:04;;;;;;;6.20;2.40;;;1.30;99.90;;;;;;5027847;28;20486;-51
2022/03/04 07:38:30;;;;;;;10.00;2.40;;;1.30;99.90;;;;;;5020685;28;20483;-52
2022/03/04 07:40:58;;;;;;;6.70;3.60;;;1.40;99.90;;;;;;5025821;28;20479;-52
2022/03/04 07:43:25;;;;;;;6.10;2.97;;;1.40;90.60;;;;;;5027459;28;20827;-51
2022/03/04 07:45:53;;;;;;;3.90;3.13;;;1.40;74.90;;;;;;5025622;28;20459;-51
2022/03/04 07:48:20;;;;;;;3.80;3.20;;;1.50;99.90;;;;;;5026932;28;20524;-52
2022/03/04 07:50:46;;;;;;;4.07;2.80;;;1.60;82.10;;;;;;5027119;28;20482;-51
2022/03/04 07:53:13;;;;;;;5.90;4.00;;;1.60;27.20;;;;;;5030015;28;20455;-52
2022/03/04 07:55:39;;;;;;;3.57;3.00;;;1.50;33.00;;;;;;5028640;28;20454;-51
2022/03/04 07:58:06;;;;;;;4.93;3.30;;;1.60;31.90;;;;;;5022656;28;20451;-52
2022/03/04 08:00:32;;;;;;;4.50;2.90;;;1.70;36.60;;;;;;5015428;28;20536;-51
2022/03/04 08:03:01;;;;;;;5.67;3.07;;;1.70;35.20;;;;;;5022357;28;20490;-52
2022/03/04 08:05:28;;;;;;;4.27;2.60;;;1.80;46.30;;;;;;5022351;28;20574;-51
2022/03/04 08:07:55;;;;;;;4.27;3.10;;;1.80;48.00;;;;;;5022158;28;20459;-51
2022/03/04 08:10:21;;;;;;;5.33;3.47;;;1.90;53.10;;;;;;5013273;28;20487;-51
2022/03/04 08:12:48;;;;;;;5.27;2.63;;;1.90;47.60;;;;;;5027991;28;20823;-51
2022/03/04 08:15:14;;;;;;;3.07;2.40;;;2.00;54.10;;;;;;5022444;28;20543;-51
2022/03/04 08:17:43;;;;;;;3.30;3.00;;;2.10;57.20;;;;;;5024554;28;20471;-51
2022/03/04 08:20:11;;;;;;;5.77;2.77;;;2.10;64.00;;;;;;5019778;28;20493;-52
2022/03/04 08:22:38;;;;;;;3.87;2.70;;;2.20;77.90;;;;;;5025128;28;21193;-51
2022/03/04 08:25:05;;;;;;;5.50;3.53;;;2.30;84.30;;;;;;5026371;28;20483;-51
2022/03/04 08:27:36;;;;;;;7.50;3.30;;;2.40;80.40;;;;;;5024566;28;20462;-51
2022/03/04 08:30:03;;;;;;;3.77;3.40;;;2.40;88.70;;;;;;5025920;28;20487;-51
2022/03/04 08:32:30;;;;;;;4.47;3.20;;;2.50;94.70;;;;;;5021679;28;20470;-51
2022/03/04 08:34:56;;;;;;;4.63;3.17;;;2.60;94.90;;;;;;5023081;28;21011;-53
2022/03/04 08:37:24;;;;;;;6.00;3.70;;;2.80;99.90;;;;;;5026118;28;20529;-51
2022/03/04 08:39:51;;;;;;;4.33;3.43;;;2.90;99.90;;;;;;5019465;28;20551;-53
2022/03/04 08:42:18;;;;;;;6.23;3.90;;;3.00;99.90;;;;;;5028655;28;20980;-51
2022/03/04 08:44:45;;;;;;;5.93;3.23;;;3.10;99.90;;;;;;5031024;28;20877;-51
2022/03/04 08:47:12;;;;;;;6.50;3.83;;;3.10;99.90;;;;;;5030784;28;20439;-51
2022/03/04 08:49:38;;;;;;;12.33;3.37;;;3.30;99.90;;;;;;5031398;28;20471;-51
2022/03/04 08:52:06;;;;;;;4.20;3.13;;;3.30;99.90;;;;;;5031093;28;21110;-51
2022/03/04 08:54:34;;;;;;;5.40;2.87;;;3.40;99.90;;;;;;5031563;28;20455;-51
2022/03/04 08:57:01;;;;;;;3.83;2.87;;;3.40;99.90;;;;;;5028361;28;20506;-51
2022/03/04 08:59:27;;;;;;;3.60;2.73;;;3.50;99.90;;;;;;5018676;28;20471;-51
2022/03/04 09:01:54;;;;;;;7.23;3.30;;;3.60;99.90;;;;;;5015491;28;20439;-53
2022/03/04 09:04:21;;;;;;;6.50;2.90;;;3.70;99.90;;;;;;5012762;28;21167;-50
2022/03/04 09:06:47;;;;;;;4.87;3.40;;;3.90;99.90;;;;;;5030484;28;20454;-51
2022/03/04 09:09:14;;;;;;;6.30;2.40;;;3.80;99.90;;;;;;5030520;28;20804;-50
2022/03/04 09:11:42;;;;;;;4.20;2.40;;;3.90;99.90;;;;;;5030342;28;20454;-51
2022/03/04 09:14:09;;;;;;;8.53;2.70;;;4.60;22.10;;;;;;5031597;28;20451;-51
2022/03/04 09:16:36;;;;;;;2.37;1.70;;;5.00;51.30;;;;;;5030930;28;20447;-50
2022/03/04 09:19:03;;;;;;;6.00;2.47;;;5.60;64.50;;;;;;5031858;28;20454;-51
2022/03/04 09:21:30;;;;;;;5.60;2.50;;;5.60;70.10;;;;;;5031796;28;20469;-51
2022/03/04 09:23:57;;;;;;;2.80;2.20;;;5.70;69.30;;;;;;5030728;28;20451;-50
2022/03/04 09:26:24;;;;;;;5.13;2.60;;;5.70;76.80;;;;;;5030831;28;20446;-51
2022/03/04 09:28:52;;;;;;;3.77;2.53;;;5.10;73.20;;;;;;5030660;28;20964;-50
2022/03/04 09:31:18;;;;;;;2.40;2.20;;;5.30;70.00;;;;;;5030134;28;20476;-51
2022/03/04 09:33:45;;;;;;;4.80;1.90;;;5.00;70.40;;;;;;5031887;28;20450;-51
2022/03/04 09:36:14;;;;;;;2.73;2.07;;;5.00;66.50;;;;;;5030957;28;20450;-51
2022/03/04 09:38:41;;;;;;;3.90;1.83;;;4.90;69.30;;;;;;5030779;28;20936;-52
2022/03/04 09:41:08;;;;;;;4.00;2.30;;;4.70;58.00;;;;;;5030710;28;20466;-51
2022/03/04 09:43:36;;;;;;;4.37;2.57;;;4.60;65.20;;;;;;5033283;28;20509;-51
2022/03/04 09:46:04;;;;;;;6.27;2.67;;;4.60;57.50;;;;;;5034478;28;20544;-51
2022/03/04 09:48:32;;;;;;;5.70;2.43;;;4.50;58.30;;;;;;5031935;28;20873;-51
2022/03/04 09:50:59;;;;;;;3.27;2.17;;;4.50;50.60;;;;;;5034744;28;20992;-51
2022/03/04 09:53:27;;;;;;;2.90;2.37;;;4.50;47.20;;;;;;5034566;28;20481;-51
2022/03/04 09:55:53;;;;;;;2.30;2.10;;;4.50;51.00;;;;;;5031376;28;20450;-54
2022/03/04 09:58:20;;;;;;;2.70;2.47;;;4.30;64.60;;;;;;5032898;28;20500;-57
2022/03/04 10:00:47;;;;;;;4.83;3.30;;;4.20;65.70;;;;;;5034807;28;20501;-52
2022/03/04 10:03:23;;;;;;;4.13;2.83;;;4.10;60.20;;;;;;5034225;28;20496;-52
2022/03/04 10:05:54;;;;;;;6.73;3.70;;;4.00;60.20;;;;;;5034414;28;20486;-52
2022/03/04 10:08:21;;;;;;;4.47;4.07;;;4.00;57.00;;;;;;5032850;28;20447;-51
2022/03/04 10:10:52;;;;;;;5.80;4.23;;;4.10;59.60;;;;;;5034075;28;20470;-51
2022/03/04 10:13:18;;;;;;;2.87;2.60;;;4.00;59.00;;;;;;5033672;28;20454;-51
2022/03/04 10:15:55;;;;;;;3.40;2.60;;;3.90;62.40;;;;;;5034571;28;20446;-51
2022/03/04 10:18:28;;;;;;;6.50;2.90;;;3.80;70.30;;;;;;5033968;28;20454;-51
2022/03/04 10:20:55;;;;;;;4.50;2.10;;;4.00;68.80;;;;;;5029396;28;20474;-51
2022/03/04 10:23:24;;;;;;;2.57;2.37;;;4.20;69.50;;;;;;5026400;28;20447;-51
2022/03/04 10:25:52;;;;;;;3.40;2.50;;;4.30;77.40;;;;;;5033424;28;20482;-51
2022/03/04 10:28:19;;;;;;;5.27;2.90;;;4.20;85.10;;;;;;5032038;28;20461;-51
2022/03/04 10:30:49;;;;;;;3.20;2.13;;;4.20;87.20;;;;;;5034385;28;20520;-50
2022/03/04 10:33:17;;;;;;;4.23;2.13;;;4.20;85.00;;;;;;5033395;28;20509;-50
2022/03/04 10:35:46;;;;;;;4.53;2.33;;;4.30;84.30;;;;;;5034069;28;20493;-50
2022/03/04 10:38:19;;;;;;;1.70;1.60;;;4.20;81.30;;;;;;5026204;28;20451;-51
2022/03/04 10:40:46;;;;;;;3.73;1.97;;;4.10;88.10;;;;;;5034144;28;20492;-51
2022/03/04 10:43:16;;;;;;;2.87;2.13;;;4.10;83.20;;;;;;5019215;28;20447;-51
2022/03/04 10:45:44;;;;;;;2.60;1.90;;;4.20;74.50;;;;;;5032748;28;20510;-51
2022/03/04 10:48:13;;;;;;;3.17;2.07;;;4.10;82.60;;;;;;5039126;28;20454;-51
2022/03/04 10:50:42;;;;;;;2.57;2.20;;;4.30;76.10;;;;;;5043010;28;20477;-50
2022/03/04 10:53:12;;;;;;;2.70;2.10;;;4.40;82.60;;;;;;5042504;28;20447;-51
2022/03/04 10:55:44;;;;;;;3.60;1.83;;;4.50;82.50;;;;;;5024681;28;20941;-51
2022/03/04 10:58:15;;;;;;;4.67;2.57;;;4.50;87.00;;;;;;5032850;28;20447;-51
2022/03/04 11:00:44;;;;;;;3.63;2.00;;;4.00;91.40;;;;;;5027929;28;20467;-51
2022/03/04 11:03:15;;;;;;;2.00;1.53;;;4.10;90.90;;;;;;5013860;28;20449;-51
2022/03/04 11:05:42;;;;;;;3.30;1.90;;;4.30;89.40;;;;;;5025512;28;20491;-51
2022/03/04 11:08:10;;;;;;;4.03;1.80;;;4.50;93.00;;;;;;5031995;28;20447;-51
2022/03/04 11:10:37;;;;;;;4.63;2.00;;;4.60;95.70;;;;;;5029750;28;20858;-51
2022/03/04 11:13:05;;;;;;;1.53;1.43;;;4.70;98.00;;;;;;5033456;28;20447;-51
2022/03/04 11:15:33;;;;;;;2.90;1.67;;;4.70;99.90;;;;;;5032201;28;20447;-51
2022/03/04 11:18:03;;;;;;;2.30;1.80;;;5.20;99.90;;;;;;5018478;28;20829;-51
2022/03/04 11:20:29;;;;;;;6.43;1.90;;;6.00;99.90;;;;;;5015990;28;20467;-51
2022/03/04 11:22:56;;;;;;;2.30;1.50;;;6.20;99.90;;;;;;5032170;28;20447;-51
2022/03/04 11:25:24;;;;;;;1.83;1.50;;;5.80;99.90;;;;;;5031862;28;20509;-50
2022/03/04 11:27:55;;;;;;;3.47;1.50;;;6.10;99.90;;;;;;5031425;28;20451;-50
2022/03/04 11:30:38;;;;;;;4.40;1.87;;;5.90;99.90;;;;;;5033010;28;20479;-50
2022/03/04 11:33:13;;;;;;;6.93;3.70;;;5.90;99.90;;;;;;5032615;28;20451;-50
2022/03/04 11:36:12;;;;;;;5.57;3.53;;;5.60;99.90;;;;;;5032587;28;20585;-51
2022/03/04 11:39:07;;;;;;;5.00;3.23;;;5.50;99.90;;;;;;4998788;28;20513;-50
2022/03/04 11:42:00;;;;;;;5.97;3.70;;;5.30;99.90;;;;;;5032601;28;20457;-50
2022/03/04 11:44:27;;;;;;;2.50;2.30;;;5.30;99.90;;;;;;5017585;28;20456;-51
2022/03/04 11:46:59;;;;;;;2.63;2.43;;;5.30;99.90;;;;;;5029290;28;20451;-50
2022/03/04 11:49:43;;;;;;;2.53;2.33;;;5.30;99.90;;;;;;5019351;28;20819;-51
2022/03/04 11:52:19;;;;;;;3.20;2.30;;;5.40;99.90;;;;;;5031913;28;20493;-51
2022/03/04 11:55:02;;;;;;;3.00;2.67;;;5.20;99.90;;;;;;5024387;28;20465;-51
2022/03/04 11:57:31;;;;;;;3.30;2.40;;;5.30;99.90;;;;;;5024063;28;20442;-51
2022/03/04 11:59:59;;;;;;;2.87;2.63;;;5.40;99.90;;;;;;5015689;28;20483;-51
2022/03/04 12:02:28;;;;;;;2.30;2.10;;;5.60;99.90;;;;;;5012815;28;20501;-51
2022/03/04 12:05:25;;;;;;;5.00;1.93;;;5.80;99.90;;;;;;5023156;28;20478;-51
2022/03/04 12:08:06;;;;;;;2.67;2.40;;;5.80;99.90;;;;;;5032107;28;20815;-50
2022/03/04 12:10:36;;;;;;;4.53;2.80;;;5.60;99.90;;;;;;5032419;28;20467;-50
2022/03/04 12:13:05;;;;;;;9.20;7.43;;;5.50;99.90;;;;;;5031764;28;20455;-51
2022/03/04 12:15:36;;;;;;;8.00;6.70;;;5.70;99.90;;;;;;5030843;28;20519;-50
2022/03/04 12:18:06;;;;;;;5.80;4.40;;;5.70;99.90;;;;;;5031282;28;20486;-51
2022/03/04 12:20:58;;;;;;;5.13;4.40;;;5.70;99.90;;;;;;5031704;28;20479;-50
2022/03/04 12:23:30;;;;;;;6.20;3.37;;;5.80;99.90;;;;;;5031326;28;20443;-51
2022/03/04 12:26:11;;;;;;;6.90;3.20;;;5.80;99.90;;;;;;5031635;28;20478;-51
2022/03/04 12:28:44;;;;;;;4.40;3.07;;;5.70;99.90;;;;;;5031362;28;20928;-51
2022/03/04 12:31:15;;;;;;;3.73;3.37;;;5.80;99.90;;;;;;5031518;28;20529;-51
2022/03/04 12:33:45;;;;;;;3.50;3.30;;;5.60;99.90;;;;;;5030890;28;20876;-50
2022/03/04 12:36:13;;;;;;;7.60;3.60;;;5.60;99.90;;;;;;5028802;28;20477;-52
2022/03/04 12:38:43;;;;;;;5.40;3.10;;;5.80;99.90;;;;;;5031614;28;20495;-50
2022/03/04 12:41:15;;;;;;;3.23;2.63;;;5.70;99.90;;;;;;5031716;28;20467;-50
2022/03/04 12:43:45;;;;;;;3.43;3.10;;;5.70;99.90;;;;;;5031956;28;20439;-55
2022/03/04 12:46:11;;;;;;;3.90;3.57;;;5.70;99.90;;;;;;5023617;28;20479;-51
2022/03/04 12:48:38;;;;;;;7.27;3.10;;;5.70;99.90;;;;;;5030255;28;20492;-51
2022/03/04 12:51:26;;;;;;;5.50;3.00;;;5.70;99.90;;;;;;5030952;28;20521;-51
2022/03/04 12:53:54;;;;;;;3.43;2.60;;;5.50;99.90;;;;;;5031311;28;20455;-51
2022/03/04 12:56:22;;;;;;;2.30;2.10;;;5.50;99.90;;;;;;5031217;28;20869;-50
2022/03/04 12:58:52;;;;;;;4.60;2.60;;;5.40;99.90;;;;;;5031237;28;20864;-51
2022/03/04 13:01:20;;;;;;;3.30;2.50;;;5.40;99.90;;;;;;5031006;28;21007;-51
2022/03/04 13:03:48;;;;;;;2.17;1.97;;;5.30;99.90;;;;;;5031360;28;20459;-50